Time;durP1;ratioP1;P1;durP2;ratioP2;P2;SDS_P1;SDS_P2;PMS_P1;PMS_P2;Temp;Humidity;BMP_temperature;BMP_pressure;BME280_temperature;BME280_humidity;BME280_pressure;Samples;Min_cycle;Max_cycle;Signal;HPM_P1;HPM_P2
2024/01/03 00:00:29;;;;;;;1.05;0.80;;;11.60;74.30;;;7.26;100.00;94281.63;4970302;28;20082;-57
2024/01/03 00:02:57;;;;;;;0.73;0.73;;;11.60;74.30;;;7.24;100.00;94272.34;4971248;28;20033;-53
2024/01/03 00:05:39;;;;;;;0.93;0.80;;;11.60;74.10;;;7.22;100.00;94271.84;4967508;28;20044;-55
2024/01/03 00:08:30;;;;;;;0.93;0.70;;;11.60;74.10;;;7.24;100.00;94278.47;4970479;28;20393;-56
2024/01/03 00:10:58;;;;;;;0.70;0.70;;;11.70;74.20;;;7.23;100.00;94268.91;4967854;28;20497;-51
2024/01/03 00:14:04;;;;;;;0.98;0.60;;;11.70;74.10;;;7.22;100.00;94270.00;4966029;28;20515;-50
2024/01/03 00:16:35;;;;;;;0.95;0.65;;;11.70;74.10;;;7.22;100.00;94272.63;4967837;28;20033;-50
2024/01/03 00:19:03;;;;;;;1.58;0.70;;;11.60;74.00;;;7.23;100.00;94258.31;4963817;28;20023;-50
2024/01/03 00:21:31;;;;;;;0.85;0.65;;;11.60;73.90;;;7.19;100.00;94276.63;4966529;28;20392;-51
2024/01/03 00:24:10;;;;;;;1.23;0.77;;;11.60;73.90;;;7.21;100.00;94276.38;4969488;28;20038;-50
2024/01/03 00:26:40;;;;;;;1.00;0.63;;;11.60;74.00;;;7.25;100.00;94266.78;4964058;28;20034;-52
2024/01/03 00:29:26;;;;;;;0.80;0.60;;;11.50;74.00;;;7.29;100.00;94267.03;4968922;28;20603;-50
2024/01/03 00:31:52;;;;;;;0.75;0.63;;;11.60;74.00;;;7.29;100.00;94256.44;4961403;28;20038;-52
2024/01/03 00:34:21;;;;;;;1.75;0.60;;;11.50;74.00;;;7.35;100.00;94264.06;4966400;28;20432;-50
2024/01/03 00:36:55;;;;;;;0.82;0.70;;;11.50;74.00;;;7.34;100.00;94274.97;4968107;28;20029;-52
2024/01/03 00:39:33;;;;;;;0.80;0.60;;;11.60;74.00;;;7.38;100.00;94271.47;4967905;28;20033;-50
2024/01/03 00:42:00;;;;;;;0.60;0.60;;;11.60;74.00;;;7.41;100.00;94265.63;4970088;28;20068;-53
2024/01/03 00:44:26;;;;;;;1.45;0.70;;;11.60;74.10;;;7.45;100.00;94280.97;4967396;28;20027;-52
2024/01/03 00:46:56;;;;;;;0.55;0.55;;;11.60;73.90;;;7.44;100.00;94290.78;4965300;28;20045;-55
2024/01/03 00:49:24;;;;;;;0.43;0.43;;;11.70;73.80;;;7.46;100.00;94271.94;4970738;28;20022;-53
2024/01/03 00:51:51;;;;;;;0.60;0.60;;;11.70;73.70;;;7.47;100.00;94286.78;4967583;28;20038;-56
2024/01/03 00:54:20;;;;;;;0.57;0.57;;;11.70;73.60;;;7.44;100.00;94282.81;4963648;28;20049;-52
2024/01/03 00:56:48;;;;;;;0.93;0.63;;;11.70;73.60;;;7.46;100.00;94275.41;4970152;28;20057;-56
2024/01/03 00:59:16;;;;;;;0.57;0.57;;;11.70;73.60;;;7.48;100.00;94296.31;4975326;28;20101;-55
2024/01/03 01:01:44;;;;;;;0.77;0.60;;;11.70;73.60;;;7.48;100.00;94291.00;4969655;28;20050;-52
2024/01/03 01:04:12;;;;;;;0.77;0.60;;;11.70;73.60;;;7.49;100.00;94288.09;4969513;28;20033;-52
2024/01/03 01:06:41;;;;;;;0.85;0.50;;;11.70;73.60;;;7.51;100.00;94293.88;4962515;28;20030;-51
2024/01/03 01:09:08;;;;;;;2.42;0.60;;;11.80;73.60;;;7.54;100.00;94298.63;4963879;28;20014;-54
2024/01/03 01:11:35;;;;;;;0.50;0.50;;;11.80;73.60;;;7.56;100.00;94299.16;4961923;28;20030;-50
2024/01/03 01:14:02;;;;;;;0.60;0.60;;;11.80;73.50;;;7.57;100.00;94307.91;4963869;28;20358;-52
2024/01/03 01:16:28;;;;;;;0.60;0.60;;;11.80;73.50;;;7.57;100.00;94307.91;4968985;28;20080;-54
2024/01/03 01:18:53;;;;;;;0.50;0.50;;;11.90;73.40;;;7.61;100.00;94312.38;4961816;28;20054;-51
2024/01/03 01:21:19;;;;;;;0.60;0.60;;;11.90;73.30;;;7.64;100.00;94311.03;4984285;28;20030;-50
2024/01/03 01:23:45;;;;;;;3.60;0.60;;;11.90;73.10;;;7.67;100.00;94304.38;4960172;28;20042;-50
2024/01/03 01:26:11;;;;;;;0.50;0.50;;;11.90;73.00;;;7.67;100.00;94307.03;4967580;28;20046;-50
2024/01/03 01:28:37;;;;;;;0.63;0.63;;;11.90;72.90;;;7.65;100.00;94312.63;4964108;28;20386;-53
2024/01/03 01:31:03;;;;;;;0.47;0.47;;;11.90;72.80;;;7.67;100.00;94307.81;4968586;28;20333;-50
2024/01/03 01:33:29;;;;;;;2.28;0.80;;;12.00;72.70;;;7.67;100.00;94307.81;4962829;28;20022;-50
2024/01/03 01:35:55;;;;;;;0.57;0.57;;;11.90;72.60;;;7.68;100.00;94308.59;4966947;28;20036;-52
2024/01/03 01:38:21;;;;;;;1.35;0.50;;;12.00;73.30;;;7.71;100.00;94314.16;4961506;28;20018;-51
2024/01/03 01:40:49;;;;;;;0.88;0.50;;;12.00;72.40;;;7.75;100.00;94325.00;4965160;28;20351;-55
2024/01/03 01:43:16;;;;;;;0.70;0.70;;;12.00;72.30;;;7.79;100.00;94305.59;4969375;28;20645;-50
2024/01/03 01:45:42;;;;;;;2.30;0.60;;;12.10;72.30;;;7.79;100.00;94318.84;4964989;28;20026;-54
2024/01/03 01:48:09;;;;;;;0.70;0.55;;;12.10;72.30;;;7.76;100.00;94316.75;4969043;28;20064;-53
2024/01/03 01:50:39;;;;;;;0.90;0.70;;;12.10;72.20;;;7.79;100.00;94331.34;4969333;28;20173;-51
2024/01/03 01:53:07;;;;;;;1.52;0.60;;;12.10;72.10;;;7.74;100.00;94328.72;4965003;28;20062;-51
2024/01/03 01:55:39;;;;;;;1.23;0.60;;;12.10;72.10;;;7.76;100.00;94331.88;4968817;28;20026;-54
2024/01/03 01:58:08;;;;;;;0.50;0.50;;;12.10;72.00;;;7.79;100.00;94321.50;4973034;28;20026;-55
2024/01/03 02:00:38;;;;;;;1.65;0.50;;;12.10;72.00;;;7.80;100.00;94324.94;4962216;28;20060;-54
2024/01/03 02:03:05;;;;;;;1.42;0.65;;;12.20;71.90;;;7.78;100.00;94319.16;4967288;28;20022;-53
2024/01/03 02:05:31;;;;;;;1.38;0.63;;;12.20;71.80;;;7.76;100.00;94316.75;4960892;28;20034;-55
2024/01/03 02:07:58;;;;;;;2.08;0.73;;;12.20;71.80;;;7.74;100.00;94305.66;4965476;28;20018;-56
2024/01/03 02:10:24;;;;;;;0.82;0.50;;;12.20;71.80;;;7.74;100.00;94313.63;4964429;28;20481;-55
2024/01/03 02:12:51;;;;;;;0.68;0.60;;;12.10;71.70;;;7.74;100.00;94300.38;4966433;28;20026;-56
2024/01/03 02:15:17;;;;;;;0.60;0.60;;;12.20;71.70;;;7.77;100.00;94305.13;4967349;28;20036;-55
2024/01/03 02:17:45;;;;;;;0.50;0.50;;;12.20;72.50;;;7.75;100.00;94293.19;4965691;28;20026;-54
2024/01/03 02:20:13;;;;;;;0.57;0.47;;;12.20;71.70;;;7.76;100.00;94284.94;4962050;28;20025;-53
2024/01/03 02:22:39;;;;;;;0.65;0.60;;;12.20;71.60;;;7.78;100.00;94290.78;4973463;28;20025;-53
2024/01/03 02:25:10;;;;;;;1.85;0.70;;;12.20;71.60;;;7.73;100.00;94282.84;5000845;23;20057;-55
2024/01/03 02:27:37;;;;;;;1.75;0.60;;;12.20;71.60;;;7.72;100.00;94277.84;5011167;28;20402;-55
2024/01/03 02:30:05;;;;;;;1.58;0.70;;;12.20;71.60;;;7.76;100.00;94273.56;5006292;28;20025;-54
2024/01/03 02:32:31;;;;;;;1.10;0.85;;;12.20;71.60;;;7.70;100.00;94296.66;5004869;28;20116;-55
2024/01/03 02:34:56;;;;;;;0.40;0.40;;;12.20;71.60;;;7.72;100.00;94291.09;5007305;28;20112;-54
2024/01/03 02:37:25;;;;;;;2.78;0.70;;;12.20;71.50;;;7.71;100.00;94286.84;5011543;28;20471;-56
2024/01/03 02:39:51;;;;;;;0.90;0.70;;;12.20;71.50;;;7.70;100.00;94280.75;4995295;28;20053;-51
2024/01/03 02:42:16;;;;;;;0.70;0.70;;;12.20;71.50;;;7.64;100.00;94281.88;5005492;28;20053;-55
2024/01/03 02:44:42;;;;;;;0.50;0.50;;;12.10;71.60;;;7.62;100.00;94270.78;5001764;28;20025;-51
2024/01/03 02:47:08;;;;;;;1.38;0.50;;;12.10;71.70;;;7.58;100.00;94270.53;5009738;28;20151;-57
2024/01/03 02:49:34;;;;;;;1.25;0.55;;;12.00;71.80;;;7.61;100.00;94262.00;4993205;28;20114;-56
2024/01/03 02:52:00;;;;;;;0.70;0.63;;;12.00;71.90;;;7.59;100.00;94261.50;5000848;28;20025;-52
2024/01/03 02:54:27;;;;;;;0.80;0.70;;;12.00;72.10;;;7.56;100.00;94255.97;5012184;28;20196;-55
2024/01/03 02:56:54;;;;;;;0.73;0.50;;;12.00;72.20;;;7.56;100.00;94261.28;5012755;28;20033;-57
2024/01/03 02:59:20;;;;;;;0.65;0.65;;;12.00;72.20;;;7.53;100.00;94259.19;5007795;28;20021;-53
2024/01/03 03:01:45;;;;;;;1.40;0.85;;;12.00;72.30;;;7.55;100.00;94249.06;4997130;28;20037;-52
2024/01/03 03:04:12;;;;;;;1.30;0.80;;;11.90;72.30;;;7.55;100.00;94251.72;5001437;28;20024;-51
2024/01/03 03:06:38;;;;;;;1.23;0.95;;;11.90;72.40;;;7.54;100.00;94242.22;5012721;28;20032;-57
2024/01/03 03:09:04;;;;;;;0.60;0.60;;;11.90;72.40;;;7.53;100.00;94251.22;5011638;28;20515;-54
2024/01/03 03:11:30;;;;;;;1.10;0.60;;;11.90;72.50;;;7.53;100.00;94249.38;5011806;28;20483;-55
2024/01/03 03:13:56;;;;;;;0.50;0.50;;;11.90;72.60;;;7.56;100.00;94248.03;5012332;28;20110;-54
2024/01/03 03:16:21;;;;;;;0.77;0.68;;;11.90;72.60;;;7.54;100.00;94258.91;4999677;28;20033;-52
2024/01/03 03:18:47;;;;;;;0.52;0.52;;;11.90;72.70;;;7.48;100.00;94262.66;4992936;28;20323;-50
2024/01/03 03:21:13;;;;;;;0.50;0.50;;;11.80;72.90;;;7.47;100.00;94245.19;4992629;28;20029;-55
2024/01/03 03:23:40;;;;;;;1.52;0.77;;;11.80;73.10;;;7.45;100.00;94255.25;4993087;28;20542;-53
2024/01/03 03:26:06;;;;;;;0.70;0.70;;;11.70;73.10;;;7.46;100.00;94254.19;5004016;28;20174;-51
2024/01/03 03:28:32;;;;;;;0.77;0.70;;;11.70;73.30;;;7.46;100.00;94245.44;5005531;28;20025;-56
2024/01/03 03:30:58;;;;;;;2.70;1.10;;;11.70;73.40;;;7.38;100.00;94252.13;5010709;28;20036;-53
2024/01/03 03:33:24;;;;;;;0.70;0.60;;;11.70;73.60;;;7.39;100.00;94259.78;5010563;28;20021;-52
2024/01/03 03:35:50;;;;;;;0.70;0.55;;;11.60;73.70;;;7.35;100.00;94253.47;5011476;28;20048;-52
2024/01/03 03:38:15;;;;;;;0.80;0.70;;;11.60;73.90;;;7.31;100.00;94256.97;5011965;28;20484;-56
2024/01/03 03:40:41;;;;;;;1.55;0.70;;;11.60;74.00;;;7.29;100.00;94259.09;5011203;28;20474;-55
2024/01/03 03:43:07;;;;;;;1.60;0.75;;;11.50;74.00;;;7.24;100.00;94248.50;5010864;28;20029;-55
2024/01/03 03:45:33;;;;;;;1.17;0.88;;;11.50;74.10;;;7.19;100.00;94258.09;5010311;28;20159;-51
2024/01/03 03:47:58;;;;;;;2.35;0.80;;;11.50;75.00;;;7.18;100.00;94253.06;5011625;28;20368;-51
2024/01/03 03:50:24;;;;;;;3.10;1.20;;;11.50;74.40;;;7.18;100.00;94253.88;5011876;28;20033;-52
2024/01/03 03:52:50;;;;;;;2.97;0.90;;;11.50;74.50;;;7.15;100.00;94237.75;5010532;28;20104;-55
2024/01/03 03:55:16;;;;;;;0.93;0.80;;;11.50;74.70;;;7.13;100.00;94258.41;5011564;28;20030;-55
2024/01/03 03:57:42;;;;;;;2.42;1.08;;;11.40;74.70;;;7.13;100.00;94243.28;5010546;28;20100;-50
2024/01/03 04:00:09;;;;;;;3.35;0.98;;;11.40;74.90;;;7.11;100.00;94226.91;4999069;28;20430;-53
2024/01/03 04:02:34;;;;;;;3.03;0.90;;;11.40;75.00;;;7.14;100.00;94223.69;5007187;28;20029;-50
2024/01/03 04:05:00;;;;;;;1.08;0.90;;;11.40;75.10;;;7.12;100.00;94233.78;5005075;28;20078;-52
2024/01/03 04:07:28;;;;;;;1.60;0.82;;;11.40;75.10;;;7.14;100.00;94223.69;5007328;28;20029;-50
2024/01/03 04:09:54;;;;;;;1.90;0.80;;;11.40;75.20;;;7.19;100.00;94220.22;5006059;28;20021;-52
2024/01/03 04:12:20;;;;;;;1.38;1.00;;;11.40;75.30;;;7.22;100.00;94240.84;5011095;28;20033;-55
2024/01/03 04:14:46;;;;;;;1.15;1.05;;;11.40;75.40;;;7.19;100.00;94255.44;5009393;28;20468;-53
2024/01/03 04:17:11;;;;;;;1.00;0.82;;;11.40;75.50;;;7.24;100.00;94262.56;4992527;28;20029;-55
2024/01/03 04:19:38;;;;;;;3.20;0.90;;;11.40;75.60;;;7.28;100.00;94279.50;5006121;28;20048;-56
2024/01/03 04:22:05;;;;;;;1.90;0.70;;;11.50;75.70;;;7.28;100.00;94265.47;5010308;28;20056;-55
2024/01/03 04:24:31;;;;;;;2.42;0.95;;;11.50;75.60;;;7.27;100.00;94267.31;5009978;28;20037;-53
2024/01/03 04:26:57;;;;;;;1.83;0.82;;;11.50;75.70;;;7.26;100.00;94257.78;5007901;28;20479;-57
2024/01/03 04:29:23;;;;;;;1.30;0.82;;;11.50;75.60;;;7.28;100.00;94253.00;5008594;28;20036;-50
2024/01/03 04:31:49;;;;;;;1.58;0.70;;;11.50;75.70;;;7.31;100.00;94257.75;5010278;28;20100;-57
2024/01/03 04:34:14;;;;;;;1.52;0.80;;;11.50;75.60;;;7.39;100.00;94245.75;5003315;28;20037;-50
2024/01/03 04:36:40;;;;;;;1.17;0.70;;;11.60;75.60;;;7.41;100.00;94238.34;5004715;28;20389;-53
2024/01/03 04:39:06;;;;;;;0.70;0.70;;;11.60;75.50;;;7.44;100.00;94263.50;5005341;28;20025;-56
2024/01/03 04:41:32;;;;;;;2.42;0.70;;;11.60;75.30;;;7.39;100.00;94267.75;5007799;28;20029;-50
2024/01/03 04:43:58;;;;;;;1.85;0.80;;;11.60;75.20;;;7.36;100.00;94257.72;4999309;28;20025;-55
2024/01/03 04:46:24;;;;;;;0.95;0.77;;;11.70;75.10;;;7.42;100.00;94266.41;5003810;28;20033;-51
2024/01/03 04:48:52;;;;;;;1.85;0.70;;;11.70;75.10;;;7.44;100.00;94272.22;5008535;28;20107;-55
2024/01/03 04:51:17;;;;;;;1.85;0.70;;;11.70;74.90;;;7.44;100.00;94277.53;5004241;28;20029;-53
2024/01/03 04:53:43;;;;;;;1.60;0.73;;;11.70;74.90;;;7.42;100.00;94280.44;5006000;28;20123;-54
2024/01/03 04:56:09;;;;;;;3.03;1.00;;;11.70;74.90;;;7.47;100.00;94300.03;4991338;28;20109;-55
2024/01/03 04:58:35;;;;;;;1.35;0.80;;;11.70;74.80;;;7.47;100.00;94303.47;4994055;28;20541;-54
2024/01/03 05:01:01;;;;;;;1.02;0.80;;;11.80;74.80;;;7.45;100.00;94297.66;5010293;28;20021;-55
2024/01/03 05:03:27;;;;;;;1.95;1.00;;;11.80;74.80;;;7.46;100.00;94301.91;5005993;28;20029;-51
2024/01/03 05:05:53;;;;;;;1.50;1.00;;;11.80;74.80;;;7.48;100.00;94301.59;5010424;28;20043;-55
2024/01/03 05:08:18;;;;;;;3.25;1.33;;;11.80;74.70;;;7.49;100.00;94303.19;5010390;28;20120;-56
2024/01/03 05:10:44;;;;;;;1.42;1.08;;;11.80;74.70;;;7.40;100.00;94309.09;5006059;28;20116;-54
2024/01/03 05:13:10;;;;;;;1.58;0.90;;;11.80;74.60;;;7.35;100.00;94295.84;5010143;28;20047;-54
2024/01/03 05:15:36;;;;;;;2.25;1.17;;;11.70;74.60;;;7.38;100.00;94308.56;5009446;28;20025;-51
2024/01/03 05:18:02;;;;;;;4.70;1.10;;;11.70;74.70;;;7.35;100.00;94332.16;5010220;28;20032;-53
2024/01/03 05:20:28;;;;;;;1.45;0.95;;;11.70;74.80;;;7.33;100.00;94315.75;5010496;28;20021;-54
2024/01/03 05:22:54;;;;;;;4.28;1.30;;;11.70;74.90;;;7.37;100.00;94330.03;5008920;28;20491;-51
2024/01/03 05:25:20;;;;;;;1.00;0.90;;;11.70;74.90;;;7.32;100.00;94330.06;5013451;28;20053;-56
2024/01/03 05:27:46;;;;;;;0.88;0.80;;;11.70;75.00;;;7.33;100.00;94340.41;5004835;28;20017;-54
2024/01/03 05:30:12;;;;;;;1.95;1.02;;;11.70;75.00;;;7.35;100.00;94345.41;5010254;28;20110;-55
2024/01/03 05:32:38;;;;;;;4.50;1.20;;;11.70;75.10;;;7.33;100.00;94342.22;5002494;28;20074;-54
2024/01/03 05:35:05;;;;;;;1.67;1.00;;;11.70;75.20;;;7.32;100.00;94343.31;5008401;28;20485;-55
2024/01/03 05:37:32;;;;;;;3.78;1.15;;;11.70;75.10;;;7.31;100.00;94339.88;5010112;28;20027;-56
2024/01/03 05:39:57;;;;;;;2.85;1.38;;;11.60;75.10;;;7.32;100.00;94346.75;5009334;28;20025;-52
2024/01/03 05:42:23;;;;;;;2.60;1.20;;;11.60;75.10;;;7.33;100.00;94345.69;5008653;28;20033;-55
2024/01/03 05:44:49;;;;;;;2.17;1.25;;;11.70;75.20;;;7.32;100.00;94330.84;5005913;28;20029;-58
2024/01/03 05:47:15;;;;;;;3.47;1.45;;;11.60;75.10;;;7.30;100.00;94325.03;5006968;28;20106;-54
2024/01/03 05:49:41;;;;;;;3.42;1.10;;;11.60;75.10;;;7.28;100.00;94319.22;5010487;28;20606;-56
2024/01/03 05:52:07;;;;;;;1.67;1.00;;;11.60;75.00;;;7.29;100.00;94326.09;5008668;28;20028;-52
2024/01/03 05:54:33;;;;;;;2.45;1.40;;;11.60;74.90;;;7.23;100.00;94329.03;5009440;28;20118;-54
2024/01/03 05:57:00;;;;;;;1.88;1.40;;;11.50;74.80;;;7.19;100.00;94340.19;5009745;28;20029;-54
2024/01/03 05:59:26;;;;;;;5.85;1.80;;;11.50;74.80;;;7.17;100.00;94334.34;5009206;28;20503;-53
2024/01/03 06:01:52;;;;;;;4.28;1.77;;;11.40;74.70;;;7.15;100.00;94325.13;5010267;28;20028;-52
2024/01/03 06:04:18;;;;;;;3.28;1.52;;;11.40;74.70;;;7.16;100.00;94326.69;5001096;28;20021;-52
2024/01/03 06:06:44;;;;;;;3.47;1.40;;;11.40;75.60;;;7.15;100.00;94344.44;4990346;28;20040;-56
2024/01/03 06:09:10;;;;;;;4.35;1.35;;;11.40;74.70;;;7.20;100.00;94340.97;4991878;28;20029;-56
2024/01/03 06:11:36;;;;;;;1.85;1.25;;;11.40;74.60;;;7.22;100.00;94335.41;5007635;28;20108;-55
2024/01/03 06:14:02;;;;;;;5.07;1.33;;;11.40;74.60;;;7.22;100.00;94338.84;5009607;28;20491;-54
2024/01/03 06:16:28;;;;;;;3.13;1.17;;;11.40;74.50;;;7.16;100.00;94340.72;5008702;28;20017;-55
2024/01/03 06:18:54;;;;;;;1.67;0.75;;;11.40;74.40;;;7.15;100.00;94352.41;4998822;28;20037;-53
2024/01/03 06:21:20;;;;;;;1.42;0.90;;;11.40;74.30;;;7.19;100.00;94361.38;5000953;28;20033;-56
2024/01/03 06:23:46;;;;;;;2.38;0.88;;;11.40;74.30;;;7.22;100.00;94348.66;5009490;28;20030;-54
2024/01/03 06:26:12;;;;;;;2.67;0.98;;;11.40;74.20;;;7.28;100.00;94364.25;5010225;28;20049;-57
2024/01/03 06:28:38;;;;;;;2.35;0.95;;;11.40;74.10;;;7.28;100.00;94366.91;4998558;28;20017;-55
2024/01/03 06:31:04;;;;;;;0.88;0.75;;;11.50;74.00;;;7.32;100.00;94372.44;4999784;28;20114;-53
2024/01/03 06:33:30;;;;;;;2.20;0.80;;;11.50;73.90;;;7.38;100.00;94369.50;5008536;28;20024;-55
2024/01/03 06:35:59;;;;;;;2.47;1.10;;;11.60;73.70;;;7.40;100.00;94374.53;5009640;28;20479;-55
2024/01/03 06:38:25;;;;;;;2.17;0.80;;;11.60;73.50;;;7.41;100.00;94368.94;5009594;28;20024;-54
2024/01/03 06:40:51;;;;;;;2.33;0.70;;;11.60;73.30;;;7.48;100.00;94381.09;4993783;28;20384;-55
2024/01/03 06:43:17;;;;;;;1.02;0.73;;;11.70;73.00;;;7.51;100.00;94385.84;5000135;28;20049;-54
2024/01/03 06:45:43;;;;;;;1.75;0.77;;;11.70;73.70;;;7.50;100.00;94398.31;4993994;28;20605;-51
2024/01/03 06:48:09;;;;;;;3.03;0.80;;;11.80;72.90;;;7.50;100.00;94384.28;5009737;28;20036;-51
2024/01/03 06:50:34;;;;;;;2.60;0.90;;;11.80;72.70;;;7.54;100.00;94386.09;5009594;28;20025;-56
2024/01/03 06:53:00;;;;;;;2.28;0.70;;;11.80;72.30;;;7.55;100.00;94381.56;5008045;28;20468;-54
2024/01/03 06:55:26;;;;;;;3.60;0.80;;;11.80;72.00;;;7.57;100.00;94388.19;5002637;28;20037;-56
2024/01/03 06:57:53;;;;;;;4.00;1.20;;;11.90;71.90;;;7.58;100.00;94391.63;5003976;28;20036;-56
2024/01/03 07:00:19;;;;;;;1.77;0.88;;;11.90;71.50;;;7.57;100.00;94393.50;5009417;28;20447;-53
2024/01/03 07:02:45;;;;;;;2.72;0.88;;;11.90;71.20;;;7.57;98.79;94377.59;5011432;28;20422;-56
2024/01/03 07:05:11;;;;;;;1.77;0.77;;;11.90;71.00;;;7.57;98.60;94398.78;5007033;28;20025;-55
2024/01/03 07:07:37;;;;;;;1.67;0.80;;;11.90;70.80;;;7.53;97.79;94407.56;5000030;28;20031;-52
2024/01/03 07:10:04;;;;;;;3.95;0.73;;;11.90;70.70;;;7.55;98.60;94398.28;5008393;28;20025;-54
2024/01/03 07:12:30;;;;;;;1.48;0.80;;;11.90;70.50;;;7.54;97.56;94387.94;4998076;28;20029;-53
2024/01/03 07:14:56;;;;;;;2.65;1.00;;;11.90;70.40;;;7.56;97.05;94393.78;5006531;28;20119;-55
2024/01/03 07:17:22;;;;;;;1.95;0.80;;;11.90;70.20;;;7.54;95.89;94401.19;5002107;28;20029;-53
2024/01/03 07:19:48;;;;;;;2.05;0.60;;;11.90;69.80;;;7.53;95.76;94397.75;5002093;28;20028;-52
2024/01/03 07:22:14;;;;;;;3.20;0.80;;;11.90;69.50;;;7.54;95.38;94396.69;5000769;28;20036;-56
2024/01/03 07:24:39;;;;;;;3.55;0.70;;;11.90;69.50;;;7.51;95.71;94381.34;5003156;28;20060;-53
2024/01/03 07:27:06;;;;;;;4.65;0.88;;;11.90;69.40;;;7.51;97.15;94401.75;4999830;28;20036;-52
2024/01/03 07:29:31;;;;;;;2.03;0.90;;;11.90;69.30;;;7.46;97.54;94391.16;5006994;28;20021;-55
2024/01/03 07:31:57;;;;;;;3.70;0.80;;;11.90;69.30;;;7.44;97.97;94396.75;5002122;28;20052;-51
2024/01/03 07:34:23;;;;;;;3.13;0.90;;;11.90;69.30;;;7.40;96.45;94398.38;5011557;28;20040;-51
2024/01/03 07:36:49;;;;;;;1.95;1.10;;;11.90;69.20;;;7.38;96.57;94406.56;5012154;28;20025;-55
2024/01/03 07:39:15;;;;;;;1.67;0.80;;;11.90;69.10;;;7.35;97.42;94401.81;4992945;28;20021;-55
2024/01/03 07:41:41;;;;;;;3.25;0.80;;;11.90;68.90;;;7.31;95.96;94384.09;5011912;28;20092;-55
2024/01/03 07:44:07;;;;;;;2.25;0.98;;;11.90;68.90;;;7.33;97.14;94403.16;4996618;28;20156;-53
2024/01/03 07:46:33;;;;;;;2.25;0.90;;;11.90;68.80;;;7.32;96.55;94385.69;4992257;28;20033;-53
2024/01/03 07:48:59;;;;;;;3.42;0.90;;;11.90;68.70;;;7.34;96.98;94394.16;5001979;28;20040;-56
2024/01/03 07:51:25;;;;;;;3.40;0.88;;;11.90;68.70;;;7.33;96.55;94390.72;5010724;28;20029;-54
2024/01/03 07:53:50;;;;;;;2.22;0.70;;;11.90;68.70;;;7.31;96.60;94389.41;5011715;28;20036;-53
2024/01/03 07:56:16;;;;;;;1.48;0.80;;;11.90;68.60;;;7.31;96.58;94387.53;5011688;28;20032;-51
2024/01/03 07:58:42;;;;;;;1.67;0.60;;;11.90;68.50;;;7.34;96.42;94396.81;5010867;28;20024;-53
2024/01/03 08:01:08;;;;;;;2.70;0.60;;;11.90;68.40;;;7.34;95.96;94394.94;5011464;28;20033;-56
2024/01/03 08:03:34;;;;;;;1.52;0.80;;;11.90;68.30;;;7.35;95.59;94385.13;5007852;28;20025;-51
2024/01/03 08:06:00;;;;;;;4.20;0.80;;;11.90;68.30;;;7.35;96.46;94393.88;4991948;28;20380;-51
2024/01/03 08:08:25;;;;;;;3.00;0.90;;;11.90;68.10;;;7.36;96.37;94397.31;4991876;28;20029;-52
2024/01/03 08:10:51;;;;;;;0.85;0.70;;;11.90;68.00;;;7.39;96.83;94402.84;4997170;28;20037;-51
2024/01/03 08:13:17;;;;;;;2.22;0.80;;;12.00;68.10;;;7.39;96.30;94400.22;5003888;28;20480;-52
2024/01/03 08:15:43;;;;;;;3.78;0.70;;;12.00;68.00;;;7.45;95.16;94400.97;5001270;28;20117;-52
2024/01/03 08:18:09;;;;;;;1.38;0.77;;;12.10;67.90;;;7.48;95.63;94400.44;5011241;28;20017;-51
2024/01/03 08:20:34;;;;;;;2.70;1.00;;;12.10;67.70;;;7.48;95.13;94395.13;5005363;28;20442;-53
2024/01/03 08:23:00;;;;;;;2.00;0.90;;;12.10;67.50;;;7.51;94.48;94391.16;5006380;28;20104;-51
2024/01/03 08:25:26;;;;;;;2.63;0.80;;;12.20;67.40;;;7.53;94.23;94399.63;5005111;28;20412;-53
2024/01/03 08:27:52;;;;;;;2.08;0.90;;;12.20;67.30;;;7.59;93.08;94393.22;4994214;28;20041;-52
2024/01/03 08:30:18;;;;;;;4.20;2.40;;;12.30;67.10;;;7.73;92.55;94404.78;4995684;28;20399;-52
2024/01/03 08:32:44;;;;;;;1.50;0.57;;;12.40;66.90;;;7.81;91.99;94408.75;5010852;28;20050;-55
2024/01/03 08:35:10;;;;;;;0.90;0.70;;;12.50;66.70;;;7.89;91.81;94416.09;5010690;28;20053;-50
2024/01/03 08:37:36;;;;;;;2.17;0.75;;;12.50;66.50;;;7.94;89.88;94409.97;5010955;28;20418;-52
2024/01/03 08:40:03;;;;;;;1.48;0.75;;;12.60;66.20;;;8.06;87.24;94405.13;5010202;28;20025;-50
2024/01/03 08:42:29;;;;;;;1.67;0.85;;;12.70;65.90;;;8.20;87.29;94414.00;5008852;28;20142;-52
2024/01/03 08:44:54;;;;;;;1.52;0.88;;;12.90;65.50;;;8.33;84.69;94402.75;5010488;28;20059;-51
2024/01/03 08:47:20;;;;;;;2.45;0.90;;;13.00;65.20;;;8.46;82.74;94397.91;5010111;28;20021;-51
2024/01/03 08:49:46;;;;;;;3.92;1.42;;;13.10;64.70;;;8.55;80.09;94405.00;5004078;28;20421;-50
2024/01/03 08:52:13;;;;;;;2.80;1.10;;;13.20;64.00;;;8.72;77.76;94398.47;5006641;28;20392;-50
2024/01/03 08:54:40;;;;;;;2.53;0.80;;;13.40;63.30;;;8.80;77.62;94405.78;5007726;28;20049;-55
2024/01/03 08:57:09;;;;;;;3.80;0.90;;;13.40;62.80;;;8.83;77.52;94402.56;5000935;28;20476;-51
2024/01/03 08:59:36;;;;;;;2.00;0.90;;;13.50;62.60;;;8.82;74.38;94389.59;5003206;28;20033;-50
2024/01/03 09:02:04;;;;;;;1.95;0.93;;;13.50;62.10;;;8.85;73.35;94391.69;5007697;28;20044;-52
2024/01/03 09:04:30;;;;;;;2.10;0.80;;;13.50;61.40;;;8.87;71.36;94390.34;5004510;28;20021;-50
2024/01/03 09:06:56;;;;;;;1.15;0.70;;;13.60;60.80;;;8.92;73.27;94392.94;5002810;28;20041;-52
2024/01/03 09:09:22;;;;;;;3.08;0.90;;;13.60;60.60;;;8.98;70.06;94388.34;5000828;28;20399;-51
2024/01/03 09:11:49;;;;;;;1.95;0.60;;;13.60;60.30;;;9.05;70.16;94396.75;5003333;28;20033;-54
2024/01/03 09:14:16;;;;;;;1.70;0.70;;;13.70;59.70;;;9.07;71.20;94405.25;5001470;28;20484;-52
2024/01/03 09:16:42;;;;;;;2.63;0.75;;;13.80;59.70;;;9.07;70.67;94399.16;5000902;28;20547;-55
2024/01/03 09:19:08;;;;;;;1.60;0.90;;;13.80;59.30;;;9.12;69.39;94404.38;5002586;28;20068;-51
2024/01/03 09:21:34;;;;;;;2.92;0.93;;;13.90;58.90;;;9.25;69.66;94399.19;4998402;28;20029;-51
2024/01/03 09:24:04;;;;;;;2.17;0.98;;;14.10;58.50;;;9.49;67.80;94404.47;4997252;28;20458;-53
2024/01/03 09:26:30;;;;;;;0.80;0.80;;;14.40;58.00;;;9.75;66.76;94406.78;5003817;28;20063;-52
2024/01/03 09:28:56;;;;;;;2.20;1.00;;;14.80;57.70;;;10.04;64.47;94405.84;5001316;28;20048;-52
2024/01/03 09:31:22;;;;;;;3.00;0.82;;;15.20;56.70;;;10.25;61.82;94385.81;4999509;28;20076;-51
2024/01/03 09:33:48;;;;;;;0.98;0.55;;;15.50;55.60;;;10.39;59.82;94391.22;4997821;28;20053;-50
2024/01/03 09:36:21;;;;;;;1.67;0.70;;;15.70;54.40;;;10.55;57.75;94395.19;5006596;28;20455;-53
2024/01/03 09:38:47;;;;;;;1.98;0.80;;;15.90;53.50;;;10.71;58.07;94386.94;5008796;28;20041;-53
2024/01/03 09:41:15;;;;;;;1.13;0.70;;;16.10;52.60;;;10.83;58.06;94408.56;4996893;28;20446;-52
2024/01/03 09:43:42;;;;;;;0.95;0.60;;;16.30;51.70;;;10.81;56.89;94405.38;5000784;28;20100;-52
2024/01/03 09:46:12;;;;;;;1.50;0.68;;;16.30;51.20;;;10.81;56.31;94392.88;5008569;28;20045;-51
2024/01/03 09:48:44;;;;;;;1.35;0.80;;;16.30;50.20;;;10.78;55.47;94397.97;5010110;28;20595;-53
2024/01/03 09:51:10;;;;;;;2.00;0.70;;;16.30;49.70;;;10.76;56.34;94414.28;5008790;28;20450;-55
2024/01/03 09:53:37;;;;;;;2.50;1.00;;;16.30;49.50;;;10.75;55.87;94390.59;4999900;28;20067;-59
2024/01/03 09:56:04;;;;;;;2.38;0.70;;;16.30;49.20;;;10.82;56.46;94401.66;5003074;28;20609;-59
2024/01/03 09:58:30;;;;;;;1.05;0.70;;;16.30;48.90;;;10.85;55.57;94403.75;5008831;28;20079;-59
2024/01/03 10:00:55;;;;;;;1.20;0.80;;;16.30;48.40;;;10.89;55.24;94412.72;5008032;28;20029;-60
2024/01/03 10:03:22;;;;;;;1.25;0.63;;;16.40;48.30;;;10.96;55.24;94405.13;5011085;28;20031;-59
2024/01/03 10:06:07;;;;;;;2.35;0.80;;;16.50;48.10;;;11.03;55.26;94402.88;5009594;28;20033;-60
2024/01/03 10:08:35;;;;;;;1.08;0.90;;;16.50;47.80;;;11.06;56.45;94418.25;5023157;28;20025;-58
2024/01/03 10:11:01;;;;;;;2.35;0.70;;;16.60;47.60;;;11.12;55.77;94410.94;4996926;28;20025;-59
2024/01/03 10:13:28;;;;;;;2.20;0.73;;;16.60;47.70;;;11.04;55.32;94417.75;5003223;28;20476;-59
2024/01/03 10:15:54;;;;;;;1.17;0.77;;;16.50;47.40;;;11.03;56.76;94421.53;5002364;28;20526;-60
2024/01/03 10:18:22;;;;;;;1.38;0.90;;;16.50;47.50;;;10.96;55.30;94401.66;5002383;28;20033;-60